createdAt,value
2022-09-29T00:01:11.577Z,24.59
2022-09-29T00:03:39.433Z,24.56
2022-09-29T00:06:14.418Z,24.36
2022-09-29T00:08:42.643Z,24.60
2022-09-29T00:11:11.942Z,24.84
2022-09-29T00:13:40.071Z,24.80
2022-09-29T00:16:08.088Z,24.84
2022-09-29T00:18:36.146Z,24.85
2022-09-29T00:21:05.571Z,24.84
2022-09-29T00:23:34.843Z,24.83
2022-09-29T00:26:14.654Z,24.84
2022-09-29T00:28:47.743Z,24.77
2022-09-29T00:31:16.435Z,24.82
2022-09-29T00:33:44.200Z,24.83
2022-09-29T00:36:17.526Z,24.83
2022-09-29T00:38:47.389Z,24.83
2022-09-29T00:41:24.568Z,24.81
2022-09-29T00:44:07.278Z,24.39
2022-09-29T00:46:47.048Z,24.82
2022-09-29T00:49:17.484Z,24.80
2022-09-29T00:52:07.965Z,24.73
2022-09-29T00:54:46.018Z,24.75
2022-09-29T00:57:17.899Z,24.62
2022-09-29T00:59:53.510Z,24.57
2022-09-29T01:02:23.310Z,24.67
2022-09-29T01:04:54.288Z,24.60
2022-09-29T01:07:23.858Z,24.74
2022-09-29T01:09:55.212Z,24.68
2022-09-29T01:12:23.766Z,24.62
2022-09-29T01:14:53.951Z,24.60
2022-09-29T01:17:22.380Z,24.74
2022-09-29T01:20:09.220Z,24.76
2022-09-29T01:23:07.320Z,24.77
2022-09-29T01:25:48.451Z,24.74
2022-09-29T01:28:35.439Z,24.69
2022-09-29T01:31:19.715Z,24.73
2022-09-29T01:34:09.556Z,24.74
2022-09-29T01:37:21.499Z,24.59
2022-09-29T01:40:02.084Z,24.59
2022-09-29T01:42:55.289Z,24.71
2022-09-29T01:45:34.099Z,24.61
2022-09-29T01:48:23.063Z,24.55
2022-09-29T01:50:56.147Z,24.41
2022-09-29T01:53:42.796Z,24.53
2022-09-29T01:56:17.044Z,24.40
2022-09-29T01:58:52.779Z,24.64
2022-09-29T02:01:23.535Z,24.39
2022-09-29T02:03:51.213Z,24.62
2022-09-29T02:06:24.183Z,24.47
2022-09-29T02:08:55.144Z,24.65
2022-09-29T02:11:23.316Z,24.45
2022-09-29T02:13:57.912Z,24.66
2022-09-29T02:16:31.079Z,24.67
2022-09-29T02:19:08.278Z,24.55
2022-09-29T02:21:36.296Z,24.59
2022-09-29T02:24:03.920Z,24.65
2022-09-29T02:26:37.332Z,24.44
2022-09-29T02:29:07.166Z,24.63
2022-09-29T02:31:37.704Z,24.12
2022-09-29T02:34:08.725Z,24.56
2022-09-29T02:36:36.536Z,24.62
2022-09-29T02:39:30.614Z,24.63
2022-09-29T02:42:36.742Z,24.60
2022-09-29T02:45:13.583Z,24.61
2022-09-29T02:47:51.896Z,24.61
2022-09-29T02:50:28.680Z,24.61
2022-09-29T02:53:21.270Z,24.60
2022-09-29T02:55:51.767Z,24.60
2022-09-29T02:58:33.167Z,24.48
2022-09-29T03:01:01.002Z,24.53
2022-09-29T03:03:28.898Z,24.60
2022-09-29T03:05:56.940Z,24.33
2022-09-29T03:08:24.662Z,24.53
2022-09-29T03:10:53.115Z,24.46
2022-09-29T03:13:21.153Z,24.42
2022-09-29T03:15:48.994Z,24.60
2022-09-29T03:18:16.657Z,24.48
2022-09-29T03:20:44.418Z,24.64
2022-09-29T03:23:12.040Z,24.26
2022-09-29T03:25:39.752Z,24.63
2022-09-29T03:28:07.370Z,24.39
2022-09-29T03:30:35.095Z,24.64
2022-09-29T03:33:02.741Z,24.55
2022-09-29T03:35:30.405Z,24.61
2022-09-29T03:37:59.627Z,24.48
2022-09-29T03:40:28.316Z,24.24
2022-09-29T03:42:55.881Z,24.22
2022-09-29T03:45:23.708Z,24.53
2022-09-29T03:47:51.479Z,24.61
2022-09-29T03:50:19.187Z,24.59
2022-09-29T03:52:46.868Z,24.42
2022-09-29T03:55:14.677Z,24.56
2022-09-29T03:57:42.328Z,24.56
2022-09-29T04:00:10.803Z,24.19
2022-09-29T04:02:38.398Z,24.39
2022-09-29T04:05:06.319Z,24.52
2022-09-29T04:07:34.056Z,24.50
2022-09-29T04:10:01.657Z,24.47
2022-09-29T04:12:29.425Z,24.31
2022-09-29T04:14:57.752Z,24.38
2022-09-29T04:17:25.405Z,24.41
2022-09-29T04:19:53.007Z,24.39
2022-09-29T04:22:23.831Z,24.38
2022-09-29T04:24:52.290Z,24.32
2022-09-29T04:27:19.939Z,24.38
2022-09-29T04:29:47.638Z,24.37
2022-09-29T04:32:15.423Z,24.16
2022-09-29T04:34:43.391Z,23.98
2022-09-29T04:37:11.580Z,24.13
2022-09-29T04:39:39.325Z,24.08
2022-09-29T04:42:07.076Z,23.81
2022-09-29T04:44:34.689Z,24.32
2022-09-29T04:47:02.475Z,24.26
2022-09-29T04:49:30.205Z,24.00
2022-09-29T04:51:57.969Z,24.22
2022-09-29T04:54:25.612Z,24.20
2022-09-29T04:56:53.386Z,23.96
2022-09-29T04:59:21.312Z,24.02
2022-09-29T05:01:49.738Z,24.24
2022-09-29T05:04:17.616Z,23.89
2022-09-29T05:06:45.745Z,24.21
2022-09-29T05:09:13.946Z,24.08
2022-09-29T05:11:41.645Z,24.00
2022-09-29T05:14:11.263Z,24.14
2022-09-29T05:16:45.152Z,24.22
2022-09-29T05:19:13.064Z,23.86
2022-09-29T05:21:40.614Z,24.15
2022-09-29T05:24:08.341Z,23.81
2022-09-29T05:26:36.296Z,23.71
2022-09-29T05:29:04.074Z,24.04
2022-09-29T05:31:31.818Z,24.20
2022-09-29T05:33:59.610Z,24.04
2022-09-29T05:36:27.303Z,24.21
2022-09-29T05:38:56.392Z,24.07
2022-09-29T05:41:23.995Z,24.17
2022-09-29T05:43:53.741Z,24.25
2022-09-29T05:46:22.700Z,24.28
2022-09-29T05:48:53.591Z,23.71
2022-09-29T05:51:23.679Z,24.29
2022-09-29T05:53:52.153Z,24.36
2022-09-29T05:56:25.256Z,24.36
2022-09-29T05:58:54.117Z,24.12
2022-09-29T06:01:25.185Z,24.28
2022-09-29T06:03:56.859Z,24.39
2022-09-29T06:06:27.172Z,24.41
2022-09-29T06:08:57.714Z,24.40
2022-09-29T06:11:28.141Z,24.36
2022-09-29T06:13:56.277Z,24.43
2022-09-29T06:16:27.563Z,24.37
2022-09-29T06:18:55.938Z,23.93
2022-09-29T06:21:26.295Z,24.39
2022-09-29T06:23:55.396Z,23.87
2022-09-29T06:26:25.066Z,24.40
2022-09-29T06:28:54.027Z,24.17
2022-09-29T06:31:24.483Z,24.16
2022-09-29T06:33:52.842Z,24.38
2022-09-29T06:36:50.771Z,24.38
2022-09-29T06:39:18.524Z,24.35
2022-09-29T06:41:56.366Z,24.34
2022-09-29T06:44:27.348Z,24.33
2022-09-29T06:46:55.620Z,24.13
2022-09-29T06:49:24.236Z,24.36
2022-09-29T06:51:52.388Z,24.36
2022-09-29T06:54:22.496Z,24.38
2022-09-29T06:56:51.077Z,24.37
2022-09-29T06:59:18.880Z,24.35
2022-09-29T07:01:51.013Z,23.99
2022-09-29T07:04:20.851Z,24.37
2022-09-29T07:06:49.607Z,24.38
2022-09-29T07:09:17.837Z,24.38
2022-09-29T07:11:48.987Z,24.04
2022-09-29T07:14:18.415Z,24.22
2022-09-29T07:16:49.492Z,24.36
2022-09-29T07:19:18.671Z,24.32
2022-09-29T07:21:48.089Z,24.45
2022-09-29T07:24:16.549Z,24.50
2022-09-29T07:26:44.377Z,24.53
2022-09-29T07:29:15.631Z,24.36
2022-09-29T07:31:51.441Z,24.46
2022-09-29T07:34:21.758Z,24.49
2022-09-29T07:36:50.164Z,24.36
2022-09-29T07:39:21.487Z,24.40
2022-09-29T07:41:49.845Z,24.02
2022-09-29T07:44:18.210Z,24.18
2022-09-29T07:46:45.800Z,24.03
2022-09-29T07:49:13.500Z,24.21
2022-09-29T07:51:42.201Z,24.12
2022-09-29T07:54:09.962Z,24.31
2022-09-29T07:56:37.618Z,24.29
2022-09-29T07:59:05.800Z,24.23
2022-09-29T08:01:33.854Z,23.89
2022-09-29T08:04:02.517Z,24.43
2022-09-29T08:06:30.531Z,24.16
2022-09-29T08:09:04.687Z,24.45
2022-09-29T08:11:37.608Z,24.26
2022-09-29T08:14:05.959Z,24.31
2022-09-29T08:16:34.862Z,24.20
2022-09-29T08:19:03.405Z,24.49
2022-09-29T08:21:36.518Z,24.17
2022-09-29T08:24:05.639Z,24.38
2022-09-29T08:26:42.532Z,24.51
2022-09-29T08:29:16.450Z,24.45
2022-09-29T08:31:45.744Z,24.31
2022-09-29T08:34:14.083Z,24.42
2022-09-29T08:36:41.956Z,24.19
2022-09-29T08:39:11.547Z,24.59
2022-09-29T08:41:42.196Z,24.61
2022-09-29T08:44:32.694Z,24.63
2022-09-29T08:47:10.346Z,24.66
2022-09-29T08:49:43.729Z,24.60
2022-09-29T08:52:19.323Z,24.52
2022-09-29T08:54:50.910Z,24.45
2022-09-29T08:57:20.523Z,24.49
2022-09-29T09:00:11.471Z,24.63
2022-09-29T09:03:11.621Z,24.63
2022-09-29T09:05:48.667Z,24.62
2022-09-29T09:09:15.341Z,24.60
2022-09-29T09:12:04.946Z,24.44
2022-09-29T09:14:44.936Z,24.37
2022-09-29T09:17:51.989Z,24.10
2022-09-29T09:20:36.829Z,24.50
2022-09-29T09:23:13.948Z,24.60
2022-09-29T09:25:55.031Z,24.40
2022-09-29T09:28:34.814Z,24.61
2022-09-29T09:31:19.351Z,24.57
2022-09-29T09:34:03.056Z,24.48
2022-09-29T09:36:41.503Z,24.57
2022-09-29T09:39:18.465Z,24.37
2022-09-29T09:41:48.899Z,24.29
2022-09-29T09:44:25.729Z,24.57
2022-09-29T09:47:24.291Z,24.48
2022-09-29T09:50:00.026Z,24.69
2022-09-29T09:52:39.660Z,24.61
2022-09-29T09:55:15.687Z,24.69
2022-09-29T09:57:49.378Z,24.69
2022-09-29T10:00:22.537Z,24.48
2022-09-29T10:02:52.731Z,24.71
2022-09-29T10:05:26.714Z,24.71
2022-09-29T10:07:56.087Z,24.70
2022-09-29T10:10:27.075Z,24.67
2022-09-29T10:13:15.217Z,24.47
2022-09-29T10:15:58.705Z,24.59
2022-09-29T10:18:37.683Z,24.55
2022-09-29T10:21:18.722Z,24.08
2022-09-29T10:23:54.959Z,24.44
2022-09-29T10:26:33.074Z,24.56
2022-09-29T10:29:25.633Z,24.57
2022-09-29T10:32:07.121Z,24.56
2022-09-29T10:34:38.469Z,24.07
2022-09-29T10:37:18.095Z,24.39
2022-09-29T10:39:48.534Z,24.46
2022-09-29T10:42:35.920Z,24.61
2022-09-29T10:45:12.678Z,24.59
2022-09-29T10:47:41.455Z,24.28
2022-09-29T10:50:22.438Z,24.63
2022-09-29T10:52:57.539Z,24.64
2022-09-29T10:55:34.342Z,24.37
2022-09-29T10:58:44.510Z,24.38
2022-09-29T11:01:14.786Z,24.68
2022-09-29T11:04:04.026Z,24.52
2022-09-29T11:06:35.054Z,24.72
2022-09-29T11:09:04.827Z,24.72
2022-09-29T11:11:35.387Z,24.73
2022-09-29T11:14:03.524Z,24.52
2022-09-29T11:16:38.706Z,24.50
2022-09-29T11:19:06.293Z,24.74
2022-09-29T11:21:40.007Z,24.77
2022-09-29T11:24:32.522Z,24.78
2022-09-29T11:27:25.138Z,24.77
2022-09-29T11:30:11.117Z,24.75
2022-09-29T11:33:15.868Z,24.75
2022-09-29T11:35:58.581Z,24.71
2022-09-29T11:38:37.977Z,24.49
2022-09-29T11:41:44.964Z,24.73
2022-09-29T11:44:49.339Z,24.72
2022-09-29T11:47:27.223Z,24.71
2022-09-29T11:50:39.198Z,24.45
2022-09-29T11:53:19.159Z,24.72
2022-09-29T11:56:05.011Z,24.50
2022-09-29T11:58:46.258Z,24.75
2022-09-29T12:01:34.956Z,23.98
2022-09-29T12:04:15.545Z,24.78
2022-09-29T12:07:12.550Z,24.81
2022-09-29T12:10:24.945Z,24.70
2022-09-29T12:13:06.129Z,24.87
2022-09-29T12:15:42.307Z,24.91
2022-09-29T12:18:24.368Z,24.87
2022-09-29T12:20:54.359Z,24.93
2022-09-29T12:23:25.040Z,24.82
2022-09-29T12:26:03.124Z,24.91
2022-09-29T12:28:40.905Z,24.84
2022-09-29T12:31:37.736Z,25.02
2022-09-29T12:34:34.113Z,25.03
2022-09-29T12:37:19.124Z,25.05
2022-09-29T12:40:09.702Z,25.05
2022-09-29T12:42:51.460Z,25.06
2022-09-29T12:45:52.870Z,25.08
2022-09-29T12:48:41.806Z,25.08
2022-09-29T12:51:27.265Z,25.11
2022-09-29T12:54:12.455Z,25.10
2022-09-29T12:57:00.629Z,25.07
2022-09-29T12:59:40.538Z,25.12
2022-09-29T13:02:46.060Z,25.12
2022-09-29T13:05:33.626Z,25.09
2022-09-29T13:08:33.707Z,24.94
2022-09-29T13:11:20.028Z,25.11
2022-09-29T13:14:09.065Z,24.95
2022-09-29T13:16:58.458Z,25.03
2022-09-29T13:19:59.231Z,25.00
2022-09-29T13:22:42.148Z,24.96
2022-09-29T13:25:30.742Z,24.77
2022-09-29T13:28:00.554Z,24.70
2022-09-29T13:30:31.673Z,24.83
2022-09-29T13:33:16.452Z,24.96
2022-09-29T13:35:47.863Z,24.71
2022-09-29T13:38:20.152Z,24.89
2022-09-29T13:41:09.872Z,24.94
2022-09-29T13:43:50.181Z,24.89
2022-09-29T13:46:44.631Z,24.94
2022-09-29T13:49:12.328Z,24.94
2022-09-29T13:51:49.173Z,24.96
2022-09-29T13:54:29.843Z,24.95
2022-09-29T13:57:00.595Z,24.97
2022-09-29T13:59:29.088Z,24.62
2022-09-29T14:01:57.678Z,24.84
2022-09-29T14:04:49.287Z,24.86
2022-09-29T14:07:51.224Z,24.92
2022-09-29T14:10:36.687Z,24.57
2022-09-29T14:13:34.312Z,24.72
2022-09-29T14:16:13.326Z,24.49
2022-09-29T14:18:43.944Z,24.80
2022-09-29T14:21:33.396Z,24.80
2022-09-29T14:24:01.186Z,24.49
2022-09-29T14:26:48.927Z,24.78
2022-09-29T14:29:41.272Z,24.62
2022-09-29T14:32:18.430Z,24.55
2022-09-29T14:34:48.543Z,24.61
2022-09-29T14:37:20.635Z,24.73
2022-09-29T14:40:07.639Z,24.65
2022-09-29T14:42:36.011Z,24.45
2022-09-29T14:45:25.647Z,24.40
2022-09-29T14:48:23.991Z,24.75
2022-09-29T14:51:24.654Z,24.76
2022-09-29T14:54:13.772Z,24.76
2022-09-29T14:57:12.294Z,24.74
2022-09-29T14:59:40.314Z,24.75
2022-09-29T15:02:19.901Z,24.75
2022-09-29T15:04:48.423Z,24.59
2022-09-29T15:07:20.951Z,24.74
2022-09-29T15:09:57.795Z,24.74
2022-09-29T15:12:30.618Z,24.74
2022-09-29T15:15:00.410Z,24.43
2022-09-29T15:17:40.349Z,24.73
2022-09-29T15:20:52.553Z,24.72
2022-09-29T15:23:51.047Z,24.52
2022-09-29T15:26:20.107Z,24.41
2022-09-29T15:28:47.739Z,24.49
2022-09-29T15:31:27.626Z,24.73
2022-09-29T15:33:55.668Z,24.74
2022-09-29T15:36:25.618Z,24.54
2022-09-29T15:38:59.405Z,24.25
2022-09-29T15:41:29.244Z,24.79
2022-09-29T15:44:12.118Z,24.80
2022-09-29T15:46:49.126Z,24.76
2022-09-29T15:49:25.146Z,24.56
2022-09-29T15:52:15.102Z,24.84
2022-09-29T15:54:47.599Z,24.76
2022-09-29T15:57:43.837Z,24.79
2022-09-29T16:00:23.669Z,24.87
2022-09-29T16:03:24.278Z,24.87
2022-09-29T16:06:19.705Z,24.87
2022-09-29T16:08:50.581Z,24.86
2022-09-29T16:11:23.179Z,24.86
2022-09-29T16:14:16.050Z,24.74
2022-09-29T16:16:48.056Z,24.79
2022-09-29T16:19:23.107Z,24.84
2022-09-29T16:21:53.670Z,24.89
2022-09-29T16:24:23.531Z,24.77
2022-09-29T16:26:53.450Z,24.94
2022-09-29T16:29:34.270Z,24.95
2022-09-29T16:32:42.047Z,24.96
2022-09-29T16:35:42.240Z,24.97
2022-09-29T16:38:33.347Z,24.98
2022-09-29T16:41:20.424Z,24.98
2022-09-29T16:43:49.158Z,24.99
2022-09-29T16:46:21.290Z,25.00
2022-09-29T16:48:50.603Z,24.86
2022-09-29T16:51:38.325Z,24.92
2022-09-29T16:54:06.583Z,24.94
2022-09-29T16:56:35.667Z,24.91
2022-09-29T16:59:12.507Z,25.00
2022-09-29T17:01:41.550Z,24.98
2022-09-29T17:04:11.244Z,24.86
2022-09-29T17:06:45.399Z,24.61
2022-09-29T17:09:19.737Z,24.90
2022-09-29T17:11:48.896Z,24.95
2022-09-29T17:14:18.765Z,24.87
2022-09-29T17:16:46.492Z,24.83
2022-09-29T17:19:14.073Z,24.90
2022-09-29T17:21:42.005Z,24.90
2022-09-29T17:24:09.619Z,24.67
2022-09-29T17:27:02.832Z,25.02
2022-09-29T17:29:31.141Z,24.79
2022-09-29T17:32:02.368Z,24.68
2022-09-29T17:34:30.304Z,24.92
2022-09-29T17:37:00.536Z,25.06
2022-09-29T17:39:29.113Z,24.76
2022-09-29T17:41:59.113Z,24.68
2022-09-29T17:44:27.628Z,24.84
2022-09-29T17:47:05.425Z,24.81
2022-09-29T17:49:45.277Z,24.88
2022-09-29T17:52:15.627Z,24.45
2022-09-29T17:54:43.684Z,24.95
2022-09-29T17:57:25.864Z,24.95
2022-09-29T17:59:54.668Z,24.84
2022-09-29T18:02:23.197Z,24.94
2022-09-29T18:04:50.810Z,24.91
2022-09-29T18:07:18.473Z,24.59
2022-09-29T18:09:47.428Z,24.84
2022-09-29T18:12:15.264Z,24.55
2022-09-29T18:14:42.857Z,24.70
2022-09-29T18:17:10.375Z,24.81
2022-09-29T18:19:40.377Z,24.68
2022-09-29T18:22:08.675Z,24.79
2022-09-29T18:24:36.610Z,24.73
2022-09-29T18:27:04.476Z,24.74
2022-09-29T18:29:32.173Z,24.65
2022-09-29T18:32:00.711Z,24.61
2022-09-29T18:34:31.213Z,24.36
2022-09-29T18:36:58.826Z,24.68
2022-09-29T18:39:26.543Z,24.47
2022-09-29T18:41:54.275Z,24.36
2022-09-29T18:44:24.703Z,24.54
2022-09-29T18:46:52.658Z,24.58
2022-09-29T18:49:20.571Z,24.73
2022-09-29T18:51:52.201Z,24.50
2022-09-29T18:54:20.214Z,24.75
2022-09-29T18:56:50.429Z,24.75
2022-09-29T18:59:21.529Z,24.77
2022-09-29T19:01:49.348Z,24.78
2022-09-29T19:04:17.072Z,24.52
2022-09-29T19:06:44.973Z,24.67
2022-09-29T19:09:12.688Z,24.74
2022-09-29T19:11:40.487Z,24.72
2022-09-29T19:14:08.700Z,24.66
2022-09-29T19:16:37.345Z,24.72
2022-09-29T19:19:07.619Z,24.69
2022-09-29T19:21:35.904Z,24.57
2022-09-29T19:24:03.534Z,24.26
2022-09-29T19:26:31.404Z,24.57
2022-09-29T19:28:59.065Z,24.51
2022-09-29T19:31:26.703Z,24.44
2022-09-29T19:33:55.463Z,24.21
2022-09-29T19:36:23.166Z,24.69
2022-09-29T19:38:51.222Z,24.53
2022-09-29T19:41:22.591Z,24.66
2022-09-29T19:43:50.925Z,24.64
2022-09-29T19:46:19.955Z,24.64
2022-09-29T19:48:48.116Z,24.61
2022-09-29T19:51:55.579Z,24.41
2022-09-29T19:54:27.126Z,24.54
2022-09-29T19:57:00.017Z,24.36
2022-09-29T19:59:32.124Z,24.25
2022-09-29T20:02:01.961Z,24.48
2022-09-29T20:04:34.537Z,24.49
2022-09-29T20:07:04.477Z,24.50
2022-09-29T20:09:33.869Z,24.51
2022-09-29T20:12:01.903Z,24.38
2022-09-29T20:14:33.496Z,24.46
2022-09-29T20:17:01.001Z,24.49
2022-09-29T20:19:29.614Z,24.41
2022-09-29T20:21:58.615Z,24.55
2022-09-29T20:24:26.287Z,24.48
2022-09-29T20:26:59.064Z,24.51
2022-09-29T20:29:27.487Z,24.46
2022-09-29T20:31:55.332Z,24.38
2022-09-29T20:34:33.911Z,24.44
2022-09-29T20:37:01.476Z,24.25
2022-09-29T20:39:29.311Z,24.38
2022-09-29T20:41:58.440Z,24.33
2022-09-29T20:44:27.092Z,24.34
2022-09-29T20:46:56.477Z,24.42
2022-09-29T20:49:25.487Z,24.38
2022-09-29T20:51:54.396Z,24.09
2022-09-29T20:54:22.233Z,24.10
2022-09-29T20:56:53.501Z,24.40
2022-09-29T20:59:24.795Z,24.07
2022-09-29T21:01:53.994Z,24.16
2022-09-29T21:04:22.203Z,24.25
2022-09-29T21:06:52.194Z,24.28
2022-09-29T21:09:22.574Z,24.27
2022-09-29T21:11:52.356Z,24.20
2022-09-29T21:14:27.933Z,24.17
2022-09-29T21:16:56.261Z,24.11
2022-09-29T21:19:26.713Z,24.13
2022-09-29T21:21:55.448Z,24.07
2022-09-29T21:24:23.653Z,23.98
2022-09-29T21:26:51.469Z,23.64
2022-09-29T21:29:20.449Z,23.88
2022-09-29T21:31:48.603Z,24.10
2022-09-29T21:34:16.782Z,23.82
2022-09-29T21:36:44.837Z,23.65
2022-09-29T21:39:14.726Z,23.88
2022-09-29T21:41:44.221Z,23.77
2022-09-29T21:44:23.627Z,24.03
2022-09-29T21:46:51.850Z,23.69
2022-09-29T21:49:20.658Z,23.78
2022-09-29T21:51:50.758Z,23.93
2022-09-29T21:54:20.991Z,24.00
2022-09-29T21:56:49.980Z,24.00
2022-09-29T21:59:20.550Z,24.01
2022-09-29T22:01:48.472Z,23.51
2022-09-29T22:04:16.494Z,24.01
2022-09-29T22:06:45.339Z,24.01
2022-09-29T22:09:18.941Z,23.51
2022-09-29T22:11:48.766Z,23.81
2022-09-29T22:14:16.894Z,23.60
2022-09-29T22:16:45.371Z,23.82
2022-09-29T22:19:29.231Z,23.80
2022-09-29T22:21:57.728Z,23.60
2022-09-29T22:24:28.617Z,23.59
2022-09-29T22:26:56.597Z,23.64
2022-09-29T22:29:24.988Z,23.56
2022-09-29T22:31:52.888Z,23.81
2022-09-29T22:34:20.944Z,23.83
2022-09-29T22:36:48.654Z,23.82
2022-09-29T22:39:16.441Z,23.78
2022-09-29T22:41:44.207Z,23.70
2022-09-29T22:44:12.592Z,23.75
2022-09-29T22:46:40.510Z,23.41
2022-09-29T22:49:08.357Z,23.28
2022-09-29T22:51:36.941Z,23.66
2022-09-29T22:54:04.692Z,23.77
2022-09-29T22:56:32.514Z,23.57
2022-09-29T22:59:03.753Z,23.77
2022-09-29T23:01:33.468Z,23.78
2022-09-29T23:04:01.615Z,23.76
2022-09-29T23:06:30.478Z,23.53
2022-09-29T23:09:01.230Z,23.77
2022-09-29T23:11:31.355Z,23.69
2022-09-29T23:14:00.838Z,23.25
2022-09-29T23:16:28.844Z,23.30
2022-09-29T23:18:58.748Z,23.66
2022-09-29T23:21:26.599Z,23.57
2022-09-29T23:23:56.318Z,23.34
2022-09-29T23:26:24.511Z,23.73
2022-09-29T23:28:53.493Z,23.76
2022-09-29T23:31:21.532Z,23.75
2022-09-29T23:34:00.139Z,23.37
2022-09-29T23:36:29.808Z,23.67
2022-09-29T23:39:15.912Z,23.74
2022-09-29T23:41:49.023Z,23.70
2022-09-29T23:44:19.686Z,23.62
2022-09-29T23:46:47.978Z,23.58
2022-09-29T23:49:17.873Z,23.73
2022-09-29T23:51:50.830Z,23.74
2022-09-29T23:54:21.508Z,23.73
2022-09-29T23:56:51.014Z,23.69
2022-09-29T23:59:19.656Z,23.71
